Key West Nas /Boca Chica Field/ Airport
KNQX : rendu visible

Aérodrome :











RETROUVEZ-NOUS SUR...

 
LOGIN :

S'inscrire | Disclaimer

   EN    FR    IT 

 









Légende :    VFR   VFR Marginal   IFR   IFR Intensif   IFR Très Intensif
Visi : 
Plafond : 
>= 8 km
>= 3000ft
5 à 8 km
1000 à 3000 ft
1500m à 5 km
500 à 1000 ft
800 à 1500m
200 à 500 ft
< 800m
< 200 ft
Symboles :   Orages  Brouillard  Fortes neiges  Fortes précipitations  Vent > 20 kt






- Altitude de l'aérodrome : 6 ft


KNQX - Key West Nas /Boca Chica Field/

DERNIER METAR :
  • 241153Z 12013KT 10SM SCT040 23/14 A3006 RMK AO2 SLP178 T02280139 10228 20222 53004 $

METARs EXPIRÉS :
  • 241103Z 12010KT 10SM FEW040 22/14 A3005 RMK AO2 T02220139 $
  • 241053Z AUTO 12010KT 10SM CLR 23/14 A3005 RMK AO2 SLP175 T02280139 $
  • 240953Z AUTO 12010KT 10SM FEW040 23/14 A3005 RMK AO2 SLP173 T02280144 $
  • 240853Z AUTO 09010KT 10SM SCT040 23/14 A3005 RMK AO2 SLP174 T02280144 56019 $

TAF TAF KNQX
Valide du 24 à 07h jusqu'au 25 à 07h UTC


2407/2507 09010KT 9999 FEW030 SCT250 QNH3003INS
FM241600 14013KT 9999 FEW030 SCT250 QNH2996INS
FM250600 14010KT 9999 BKN030 SCT250 QNH2999INS AUTOMATED SENSOR METWATCH 2407 TIL 2411 T21/2410Z T26/2419Z FN00085



MET'MAP, la Météo Aéronautique d'un coup d'oeil ! - Copyright ORBIFLY Décembre 2007 - Disclaimer

ORBIFLY MET'MAP TEAM :

Programmation & Développement : Alexandra Zaïnal
Sur une idée originale de : Baudouin d'Aumeries
Assistance à la programmation : Marc-Olivier Méhu
Soutien technique & logistique : Manuel Goepfert

Contact : metmap@orbifly.com




SOURCES & CREDITS :

   NOAA       Earth
Advisory